sensor_id;sensor_type;location;lat;lon;timestamp;P1;durP1;ratioP1;P2;durP2;ratioP2
6113;SDS011;3087;48.392;10.836;2023-02-11T00:00:02;32.37;;;21.20;;
6113;SDS011;3087;48.392;10.836;2023-02-11T00:02:30;34.07;;;21.27;;
6113;SDS011;3087;48.392;10.836;2023-02-11T00:04:56;32.23;;;20.13;;
6113;SDS011;3087;48.392;10.836;2023-02-11T00:07:22;32.83;;;21.07;;
6113;SDS011;3087;48.392;10.836;2023-02-11T00:09:48;35.30;;;21.53;;
6113;SDS011;3087;48.392;10.836;2023-02-11T00:12:14;36.70;;;22.07;;
6113;SDS011;3087;48.392;10.836;2023-02-11T00:14:39;34.87;;;20.60;;
6113;SDS011;3087;48.392;10.836;2023-02-11T00:17:05;34.30;;;21.83;;
6113;SDS011;3087;48.392;10.836;2023-02-11T00:19:31;36.33;;;21.50;;
6113;SDS011;3087;48.392;10.836;2023-02-11T00:21:56;38.83;;;22.77;;
6113;SDS011;3087;48.392;10.836;2023-02-11T00:24:22;37.63;;;23.53;;
6113;SDS011;3087;48.392;10.836;2023-02-11T00:26:48;33.60;;;21.77;;
6113;SDS011;3087;48.392;10.836;2023-02-11T00:29:13;36.47;;;22.87;;
6113;SDS011;3087;48.392;10.836;2023-02-11T00:31:39;35.63;;;21.33;;
6113;SDS011;3087;48.392;10.836;2023-02-11T00:34:04;31.90;;;20.87;;
6113;SDS011;3087;48.392;10.836;2023-02-11T00:36:30;33.97;;;22.07;;
6113;SDS011;3087;48.392;10.836;2023-02-11T00:38:56;35.83;;;21.10;;
6113;SDS011;3087;48.392;10.836;2023-02-11T00:41:23;37.00;;;22.03;;
6113;SDS011;3087;48.392;10.836;2023-02-11T00:43:48;37.60;;;22.00;;
6113;SDS011;3087;48.392;10.836;2023-02-11T00:46:15;33.83;;;21.27;;
6113;SDS011;3087;48.392;10.836;2023-02-11T00:48:40;33.17;;;21.30;;
6113;SDS011;3087;48.392;10.836;2023-02-11T00:51:07;34.80;;;22.03;;
6113;SDS011;3087;48.392;10.836;2023-02-11T00:53:33;32.57;;;21.03;;
6113;SDS011;3087;48.392;10.836;2023-02-11T00:55:59;32.47;;;21.73;;
6113;SDS011;3087;48.392;10.836;2023-02-11T00:58:25;36.87;;;22.50;;
6113;SDS011;3087;48.392;10.836;2023-02-11T01:00:52;40.37;;;23.47;;
6113;SDS011;3087;48.392;10.836;2023-02-11T01:03:18;35.50;;;22.47;;
6113;SDS011;3087;48.392;10.836;2023-02-11T01:05:44;34.37;;;22.30;;
6113;SDS011;3087;48.392;10.836;2023-02-11T01:08:09;35.40;;;21.63;;
6113;SDS011;3087;48.392;10.836;2023-02-11T01:10:35;30.97;;;21.30;;
6113;SDS011;3087;48.392;10.836;2023-02-11T01:13:01;36.53;;;21.70;;
6113;SDS011;3087;48.392;10.836;2023-02-11T01:15:26;33.30;;;21.47;;
6113;SDS011;3087;48.392;10.836;2023-02-11T01:17:52;31.33;;;20.53;;
6113;SDS011;3087;48.392;10.836;2023-02-11T01:20:22;31.83;;;20.83;;
6113;SDS011;3087;48.392;10.836;2023-02-11T01:22:50;32.33;;;21.13;;
6113;SDS011;3087;48.392;10.836;2023-02-11T01:25:15;31.80;;;20.30;;
6113;SDS011;3087;48.392;10.836;2023-02-11T01:27:41;36.10;;;21.20;;
6113;SDS011;3087;48.392;10.836;2023-02-11T01:30:07;35.27;;;21.87;;
6113;SDS011;3087;48.392;10.836;2023-02-11T01:32:34;33.13;;;20.47;;
6113;SDS011;3087;48.392;10.836;2023-02-11T01:35:00;35.80;;;21.13;;
6113;SDS011;3087;48.392;10.836;2023-02-11T01:37:26;34.43;;;21.53;;
6113;SDS011;3087;48.392;10.836;2023-02-11T01:39:52;33.87;;;21.23;;
6113;SDS011;3087;48.392;10.836;2023-02-11T01:42:19;33.03;;;21.60;;
6113;SDS011;3087;48.392;10.836;2023-02-11T01:44:48;35.80;;;22.10;;
6113;SDS011;3087;48.392;10.836;2023-02-11T01:47:15;35.43;;;22.73;;
6113;SDS011;3087;48.392;10.836;2023-02-11T01:49:42;32.63;;;21.20;;
6113;SDS011;3087;48.392;10.836;2023-02-11T01:52:13;34.77;;;21.37;;
6113;SDS011;3087;48.392;10.836;2023-02-11T01:54:52;33.80;;;21.17;;
6113;SDS011;3087;48.392;10.836;2023-02-11T01:57:39;31.43;;;21.03;;
6113;SDS011;3087;48.392;10.836;2023-02-11T02:05:35;34.83;;;21.37;;
6113;SDS011;3087;48.392;10.836;2023-02-11T02:10:50;33.33;;;20.90;;
6113;SDS011;3087;48.392;10.836;2023-02-11T02:13:20;35.57;;;22.13;;
6113;SDS011;3087;48.392;10.836;2023-02-11T02:15:56;34.10;;;22.60;;
6113;SDS011;3087;48.392;10.836;2023-02-11T02:36:03;34.97;;;21.67;;
6113;SDS011;3087;48.392;10.836;2023-02-11T02:41:15;36.57;;;21.77;;
6113;SDS011;3087;48.392;10.836;2023-02-11T02:43:44;35.80;;;21.47;;
6113;SDS011;3087;48.392;10.836;2023-02-11T02:48:44;31.80;;;19.33;;
6113;SDS011;3087;48.392;10.836;2023-02-11T02:56:47;32.87;;;19.93;;
6113;SDS011;3087;48.392;10.836;2023-02-11T03:05:29;31.37;;;20.87;;
6113;SDS011;3087;48.392;10.836;2023-02-11T03:08:09;31.10;;;19.97;;
6113;SDS011;3087;48.392;10.836;2023-02-11T03:10:44;30.00;;;19.73;;
6113;SDS011;3087;48.392;10.836;2023-02-11T03:13:15;33.97;;;21.60;;
6113;SDS011;3087;48.392;10.836;2023-02-11T03:15:43;33.20;;;21.47;;
6113;SDS011;3087;48.392;10.836;2023-02-11T03:18:14;32.10;;;20.43;;
6113;SDS011;3087;48.392;10.836;2023-02-11T03:20:42;32.07;;;20.80;;
6113;SDS011;3087;48.392;10.836;2023-02-11T03:25:42;35.47;;;21.00;;
6113;SDS011;3087;48.392;10.836;2023-02-11T03:28:15;39.07;;;20.93;;
6113;SDS011;3087;48.392;10.836;2023-02-11T03:31:08;34.23;;;22.20;;
6113;SDS011;3087;48.392;10.836;2023-02-11T03:39:05;33.47;;;22.67;;
6113;SDS011;3087;48.392;10.836;2023-02-11T03:41:33;32.00;;;19.80;;
6113;SDS011;3087;48.392;10.836;2023-02-11T03:44:00;30.20;;;19.50;;
6113;SDS011;3087;48.392;10.836;2023-02-11T03:46:28;30.80;;;19.07;;
6113;SDS011;3087;48.392;10.836;2023-02-11T03:48:58;32.97;;;20.37;;
6113;SDS011;3087;48.392;10.836;2023-02-11T03:51:28;33.73;;;20.17;;
6113;SDS011;3087;48.392;10.836;2023-02-11T03:53:54;31.37;;;21.10;;
6113;SDS011;3087;48.392;10.836;2023-02-11T03:56:24;34.20;;;20.33;;
6113;SDS011;3087;48.392;10.836;2023-02-11T03:58:52;32.00;;;21.97;;
6113;SDS011;3087;48.392;10.836;2023-02-11T04:01:18;30.77;;;20.73;;
6113;SDS011;3087;48.392;10.836;2023-02-11T04:03:44;31.07;;;21.43;;
6113;SDS011;3087;48.392;10.836;2023-02-11T04:06:09;31.70;;;19.77;;
6113;SDS011;3087;48.392;10.836;2023-02-11T04:08:35;33.10;;;20.90;;
6113;SDS011;3087;48.392;10.836;2023-02-11T04:11:01;36.30;;;22.00;;
6113;SDS011;3087;48.392;10.836;2023-02-11T04:13:26;36.23;;;21.37;;
6113;SDS011;3087;48.392;10.836;2023-02-11T04:15:52;31.43;;;21.13;;
6113;SDS011;3087;48.392;10.836;2023-02-11T04:18:17;32.87;;;20.10;;
6113;SDS011;3087;48.392;10.836;2023-02-11T04:20:43;34.27;;;21.57;;
6113;SDS011;3087;48.392;10.836;2023-02-11T04:23:09;30.83;;;20.90;;
6113;SDS011;3087;48.392;10.836;2023-02-11T04:25:34;31.40;;;20.90;;
6113;SDS011;3087;48.392;10.836;2023-02-11T04:28:00;31.27;;;20.10;;
6113;SDS011;3087;48.392;10.836;2023-02-11T04:30:26;33.60;;;20.77;;
6113;SDS011;3087;48.392;10.836;2023-02-11T04:32:51;33.37;;;21.23;;
6113;SDS011;3087;48.392;10.836;2023-02-11T04:35:18;32.47;;;21.53;;
6113;SDS011;3087;48.392;10.836;2023-02-11T04:37:44;31.00;;;20.50;;
6113;SDS011;3087;48.392;10.836;2023-02-11T04:40:09;34.23;;;21.40;;
6113;SDS011;3087;48.392;10.836;2023-02-11T04:42:35;29.47;;;19.57;;
6113;SDS011;3087;48.392;10.836;2023-02-11T04:45:01;32.50;;;20.33;;
6113;SDS011;3087;48.392;10.836;2023-02-11T04:47:27;33.30;;;20.73;;
6113;SDS011;3087;48.392;10.836;2023-02-11T04:49:52;31.97;;;20.63;;
6113;SDS011;3087;48.392;10.836;2023-02-11T04:52:18;29.97;;;19.27;;
6113;SDS011;3087;48.392;10.836;2023-02-11T04:54:43;28.60;;;19.47;;
6113;SDS011;3087;48.392;10.836;2023-02-11T04:57:09;34.50;;;20.27;;
6113;SDS011;3087;48.392;10.836;2023-02-11T04:59:34;28.93;;;18.83;;
6113;SDS011;3087;48.392;10.836;2023-02-11T05:02:00;27.57;;;19.13;;
6113;SDS011;3087;48.392;10.836;2023-02-11T05:04:26;29.23;;;20.47;;
6113;SDS011;3087;48.392;10.836;2023-02-11T05:06:51;26.17;;;18.37;;
6113;SDS011;3087;48.392;10.836;2023-02-11T05:09:17;28.80;;;19.60;;
6113;SDS011;3087;48.392;10.836;2023-02-11T05:11:43;26.83;;;17.67;;
6113;SDS011;3087;48.392;10.836;2023-02-11T05:14:08;29.33;;;18.73;;
6113;SDS011;3087;48.392;10.836;2023-02-11T05:16:34;29.07;;;19.23;;
6113;SDS011;3087;48.392;10.836;2023-02-11T05:18:59;29.07;;;19.27;;
6113;SDS011;3087;48.392;10.836;2023-02-11T05:21:25;29.23;;;19.87;;
6113;SDS011;3087;48.392;10.836;2023-02-11T05:23:50;27.67;;;19.10;;
6113;SDS011;3087;48.392;10.836;2023-02-11T05:26:16;27.23;;;18.77;;
6113;SDS011;3087;48.392;10.836;2023-02-11T05:28:43;27.87;;;18.93;;
6113;SDS011;3087;48.392;10.836;2023-02-11T05:31:09;27.40;;;19.00;;
6113;SDS011;3087;48.392;10.836;2023-02-11T05:33:35;27.47;;;17.97;;
6113;SDS011;3087;48.392;10.836;2023-02-11T05:36:03;30.50;;;19.87;;
6113;SDS011;3087;48.392;10.836;2023-02-11T05:38:31;27.13;;;18.20;;
6113;SDS011;3087;48.392;10.836;2023-02-11T05:40:57;27.07;;;17.87;;
6113;SDS011;3087;48.392;10.836;2023-02-11T05:43:23;28.23;;;18.87;;
6113;SDS011;3087;48.392;10.836;2023-02-11T05:45:49;28.93;;;19.10;;
6113;SDS011;3087;48.392;10.836;2023-02-11T05:48:16;28.23;;;18.40;;
6113;SDS011;3087;48.392;10.836;2023-02-11T05:50:41;32.73;;;22.50;;
6113;SDS011;3087;48.392;10.836;2023-02-11T05:53:07;26.33;;;18.57;;
6113;SDS011;3087;48.392;10.836;2023-02-11T05:55:33;30.90;;;20.03;;
6113;SDS011;3087;48.392;10.836;2023-02-11T05:57:59;30.00;;;19.87;;
6113;SDS011;3087;48.392;10.836;2023-02-11T06:00:24;27.33;;;18.93;;
6113;SDS011;3087;48.392;10.836;2023-02-11T06:02:50;26.70;;;18.27;;
6113;SDS011;3087;48.392;10.836;2023-02-11T06:05:16;27.80;;;18.43;;
6113;SDS011;3087;48.392;10.836;2023-02-11T06:07:42;28.00;;;18.03;;
6113;SDS011;3087;48.392;10.836;2023-02-11T06:10:08;30.23;;;19.23;;
6113;SDS011;3087;48.392;10.836;2023-02-11T06:12:34;27.10;;;18.43;;
6113;SDS011;3087;48.392;10.836;2023-02-11T06:15:01;24.90;;;16.93;;
6113;SDS011;3087;48.392;10.836;2023-02-11T06:17:26;24.83;;;17.17;;
6113;SDS011;3087;48.392;10.836;2023-02-11T06:19:56;26.60;;;17.37;;
6113;SDS011;3087;48.392;10.836;2023-02-11T06:22:22;27.00;;;18.70;;
6113;SDS011;3087;48.392;10.836;2023-02-11T06:24:48;30.63;;;19.17;;
6113;SDS011;3087;48.392;10.836;2023-02-11T06:27:13;29.63;;;17.70;;
6113;SDS011;3087;48.392;10.836;2023-02-11T06:29:39;26.73;;;18.47;;
6113;SDS011;3087;48.392;10.836;2023-02-11T06:32:04;28.17;;;17.23;;
6113;SDS011;3087;48.392;10.836;2023-02-11T06:34:30;23.27;;;16.73;;
6113;SDS011;3087;48.392;10.836;2023-02-11T06:36:55;26.77;;;16.90;;
6113;SDS011;3087;48.392;10.836;2023-02-11T06:39:21;23.93;;;16.40;;
6113;SDS011;3087;48.392;10.836;2023-02-11T06:41:47;25.00;;;15.63;;
6113;SDS011;3087;48.392;10.836;2023-02-11T06:44:12;24.43;;;15.90;;
6113;SDS011;3087;48.392;10.836;2023-02-11T06:46:38;24.67;;;16.23;;
6113;SDS011;3087;48.392;10.836;2023-02-11T06:49:03;23.93;;;16.27;;
6113;SDS011;3087;48.392;10.836;2023-02-11T06:51:29;23.27;;;15.70;;
6113;SDS011;3087;48.392;10.836;2023-02-11T06:53:54;25.57;;;17.20;;
6113;SDS011;3087;48.392;10.836;2023-02-11T06:56:21;25.40;;;17.60;;
6113;SDS011;3087;48.392;10.836;2023-02-11T06:58:50;26.83;;;18.57;;
6113;SDS011;3087;48.392;10.836;2023-02-11T07:01:20;25.70;;;16.77;;
6113;SDS011;3087;48.392;10.836;2023-02-11T07:03:46;25.00;;;16.83;;
6113;SDS011;3087;48.392;10.836;2023-02-11T07:06:13;26.20;;;15.90;;
6113;SDS011;3087;48.392;10.836;2023-02-11T07:08:41;27.23;;;17.40;;
6113;SDS011;3087;48.392;10.836;2023-02-11T07:11:11;25.07;;;16.20;;
6113;SDS011;3087;48.392;10.836;2023-02-11T07:13:38;21.43;;;15.47;;
6113;SDS011;3087;48.392;10.836;2023-02-11T07:16:05;24.23;;;16.67;;
6113;SDS011;3087;48.392;10.836;2023-02-11T07:18:32;25.57;;;16.60;;
6113;SDS011;3087;48.392;10.836;2023-02-11T07:20:57;24.70;;;16.60;;
6113;SDS011;3087;48.392;10.836;2023-02-11T07:23:23;25.87;;;16.90;;
6113;SDS011;3087;48.392;10.836;2023-02-11T07:25:48;26.23;;;17.13;;
6113;SDS011;3087;48.392;10.836;2023-02-11T07:28:14;25.17;;;15.43;;
6113;SDS011;3087;48.392;10.836;2023-02-11T07:30:39;24.33;;;16.83;;
6113;SDS011;3087;48.392;10.836;2023-02-11T07:33:05;27.00;;;16.37;;
6113;SDS011;3087;48.392;10.836;2023-02-11T07:35:30;24.70;;;16.43;;
6113;SDS011;3087;48.392;10.836;2023-02-11T07:37:56;25.70;;;16.40;;
6113;SDS011;3087;48.392;10.836;2023-02-11T07:40:22;24.67;;;16.77;;
6113;SDS011;3087;48.392;10.836;2023-02-11T07:42:47;24.07;;;16.43;;
6113;SDS011;3087;48.392;10.836;2023-02-11T07:45:13;22.87;;;15.40;;
6113;SDS011;3087;48.392;10.836;2023-02-11T07:47:38;25.77;;;17.60;;
6113;SDS011;3087;48.392;10.836;2023-02-11T07:50:06;26.80;;;15.67;;
6113;SDS011;3087;48.392;10.836;2023-02-11T07:52:33;24.80;;;16.30;;
6113;SDS011;3087;48.392;10.836;2023-02-11T07:54:58;24.50;;;16.37;;
6113;SDS011;3087;48.392;10.836;2023-02-11T07:57:24;22.23;;;15.30;;
6113;SDS011;3087;48.392;10.836;2023-02-11T07:59:49;25.23;;;15.53;;
6113;SDS011;3087;48.392;10.836;2023-02-11T08:02:15;21.53;;;15.90;;
6113;SDS011;3087;48.392;10.836;2023-02-11T08:04:41;22.63;;;15.83;;
6113;SDS011;3087;48.392;10.836;2023-02-11T08:07:06;24.10;;;15.33;;
6113;SDS011;3087;48.392;10.836;2023-02-11T08:09:32;22.93;;;15.20;;
6113;SDS011;3087;48.392;10.836;2023-02-11T08:11:57;26.20;;;16.80;;
6113;SDS011;3087;48.392;10.836;2023-02-11T08:14:23;22.90;;;16.23;;
6113;SDS011;3087;48.392;10.836;2023-02-11T08:16:51;23.37;;;15.70;;
6113;SDS011;3087;48.392;10.836;2023-02-11T08:19:16;22.30;;;15.83;;
6113;SDS011;3087;48.392;10.836;2023-02-11T08:21:42;26.03;;;17.73;;
6113;SDS011;3087;48.392;10.836;2023-02-11T08:24:08;26.30;;;17.87;;
6113;SDS011;3087;48.392;10.836;2023-02-11T08:26:34;25.73;;;16.80;;
6113;SDS011;3087;48.392;10.836;2023-02-11T08:29:00;28.13;;;18.87;;
6113;SDS011;3087;48.392;10.836;2023-02-11T08:31:31;27.43;;;16.97;;
6113;SDS011;3087;48.392;10.836;2023-02-11T08:33:59;24.97;;;16.57;;
6113;SDS011;3087;48.392;10.836;2023-02-11T08:36:27;21.20;;;15.47;;
6113;SDS011;3087;48.392;10.836;2023-02-11T08:38:56;24.07;;;17.00;;
6113;SDS011;3087;48.392;10.836;2023-02-11T08:41:29;24.37;;;17.63;;
6113;SDS011;3087;48.392;10.836;2023-02-11T08:43:56;22.20;;;15.87;;
6113;SDS011;3087;48.392;10.836;2023-02-11T08:46:22;22.43;;;16.27;;
6113;SDS011;3087;48.392;10.836;2023-02-11T08:48:48;22.50;;;16.07;;
6113;SDS011;3087;48.392;10.836;2023-02-11T08:51:15;23.67;;;15.87;;
6113;SDS011;3087;48.392;10.836;2023-02-11T08:53:45;27.03;;;16.13;;
6113;SDS011;3087;48.392;10.836;2023-02-11T08:56:12;21.93;;;16.67;;
6113;SDS011;3087;48.392;10.836;2023-02-11T08:58:39;22.40;;;16.10;;
6113;SDS011;3087;48.392;10.836;2023-02-11T09:01:09;26.00;;;16.83;;
6113;SDS011;3087;48.392;10.836;2023-02-11T09:03:54;22.77;;;15.13;;
6113;SDS011;3087;48.392;10.836;2023-02-11T09:06:20;24.07;;;17.07;;
6113;SDS011;3087;48.392;10.836;2023-02-11T09:08:47;23.53;;;17.53;;
6113;SDS011;3087;48.392;10.836;2023-02-11T09:11:15;26.13;;;17.50;;
6113;SDS011;3087;48.392;10.836;2023-02-11T09:13:42;25.33;;;16.13;;
6113;SDS011;3087;48.392;10.836;2023-02-11T09:16:14;24.37;;;16.30;;
6113;SDS011;3087;48.392;10.836;2023-02-11T09:18:42;23.40;;;16.27;;
6113;SDS011;3087;48.392;10.836;2023-02-11T09:21:08;22.10;;;15.70;;
6113;SDS011;3087;48.392;10.836;2023-02-11T09:23:34;24.20;;;16.30;;
6113;SDS011;3087;48.392;10.836;2023-02-11T09:26:06;22.20;;;14.93;;
6113;SDS011;3087;48.392;10.836;2023-02-11T09:28:33;25.37;;;16.47;;
6113;SDS011;3087;48.392;10.836;2023-02-11T09:31:03;22.90;;;15.53;;
6113;SDS011;3087;48.392;10.836;2023-02-11T09:33:32;24.40;;;16.43;;
6113;SDS011;3087;48.392;10.836;2023-02-11T09:36:01;23.90;;;15.70;;
6113;SDS011;3087;48.392;10.836;2023-02-11T09:38:28;24.87;;;16.90;;
6113;SDS011;3087;48.392;10.836;2023-02-11T09:40:54;24.83;;;16.73;;
6113;SDS011;3087;48.392;10.836;2023-02-11T09:43:21;25.00;;;17.17;;
6113;SDS011;3087;48.392;10.836;2023-02-11T09:45:52;22.93;;;15.10;;
6113;SDS011;3087;48.392;10.836;2023-02-11T09:48:20;29.80;;;18.47;;
6113;SDS011;3087;48.392;10.836;2023-02-11T09:50:54;28.10;;;21.70;;
6113;SDS011;3087;48.392;10.836;2023-02-11T09:53:26;26.83;;;21.00;;
6113;SDS011;3087;48.392;10.836;2023-02-11T09:55:56;26.93;;;18.97;;
6113;SDS011;3087;48.392;10.836;2023-02-11T09:58:28;25.90;;;17.77;;
6113;SDS011;3087;48.392;10.836;2023-02-11T10:08:43;29.33;;;18.77;;
6113;SDS011;3087;48.392;10.836;2023-02-11T10:14:27;27.13;;;18.17;;
6113;SDS011;3087;48.392;10.836;2023-02-11T10:17:52;24.90;;;17.07;;
6113;SDS011;3087;48.392;10.836;2023-02-11T10:23:24;27.50;;;17.23;;
6113;SDS011;3087;48.392;10.836;2023-02-11T10:25:54;28.57;;;17.80;;
6113;SDS011;3087;48.392;10.836;2023-02-11T10:28:33;24.83;;;17.33;;
6113;SDS011;3087;48.392;10.836;2023-02-11T10:31:08;23.47;;;16.80;;
6113;SDS011;3087;48.392;10.836;2023-02-11T10:33:42;25.67;;;17.23;;
6113;SDS011;3087;48.392;10.836;2023-02-11T10:36:18;27.77;;;17.37;;
6113;SDS011;3087;48.392;10.836;2023-02-11T10:38:47;23.13;;;16.23;;
6113;SDS011;3087;48.392;10.836;2023-02-11T10:41:19;23.50;;;15.63;;
6113;SDS011;3087;48.392;10.836;2023-02-11T10:43:50;24.00;;;15.30;;
6113;SDS011;3087;48.392;10.836;2023-02-11T10:46:17;24.17;;;16.23;;
6113;SDS011;3087;48.392;10.836;2023-02-11T10:48:51;23.40;;;16.17;;
6113;SDS011;3087;48.392;10.836;2023-02-11T10:51:24;25.03;;;16.17;;
6113;SDS011;3087;48.392;10.836;2023-02-11T10:54:37;23.77;;;15.27;;
6113;SDS011;3087;48.392;10.836;2023-02-11T10:56:46;20.20;;;15.30;;
6113;SDS011;3087;48.392;10.836;2023-02-11T11:01:52;20.53;;;15.07;;
6113;SDS011;3087;48.392;10.836;2023-02-11T11:12:28;21.80;;;15.70;;
6113;SDS011;3087;48.392;10.836;2023-02-11T11:17:45;22.50;;;14.33;;
6113;SDS011;3087;48.392;10.836;2023-02-11T11:20:25;21.10;;;12.60;;
6113;SDS011;3087;48.392;10.836;2023-02-11T11:23:15;16.25;;;12.38;;
6113;SDS011;3087;48.392;10.836;2023-02-11T11:25:44;16.30;;;12.65;;
6113;SDS011;3087;48.392;10.836;2023-02-11T11:28:22;15.43;;;11.77;;
6113;SDS011;3087;48.392;10.836;2023-02-11T11:30:50;16.45;;;11.25;;
6113;SDS011;3087;48.392;10.836;2023-02-11T11:33:20;19.58;;;10.77;;
6113;SDS011;3087;48.392;10.836;2023-02-11T11:36:08;13.30;;;11.02;;
6113;SDS011;3087;48.392;10.836;2023-02-11T11:38:36;12.65;;;11.13;;
6113;SDS011;3087;48.392;10.836;2023-02-11T11:43:40;15.50;;;11.77;;
6113;SDS011;3087;48.392;10.836;2023-02-11T11:46:37;15.95;;;11.93;;
6113;SDS011;3087;48.392;10.836;2023-02-11T11:51:37;18.98;;;12.00;;
6113;SDS011;3087;48.392;10.836;2023-02-11T11:54:06;17.08;;;12.35;;
6113;SDS011;3087;48.392;10.836;2023-02-11T11:56:38;17.23;;;12.50;;
6113;SDS011;3087;48.392;10.836;2023-02-11T11:59:10;15.70;;;12.57;;
6113;SDS011;3087;48.392;10.836;2023-02-11T12:04:31;21.63;;;13.95;;
6113;SDS011;3087;48.392;10.836;2023-02-11T12:12:41;15.75;;;12.55;;
6113;SDS011;3087;48.392;10.836;2023-02-11T12:15:33;14.70;;;12.48;;
6113;SDS011;3087;48.392;10.836;2023-02-11T12:27:14;9.60;;;7.55;;
6113;SDS011;3087;48.392;10.836;2023-02-11T12:29:47;13.10;;;7.57;;
6113;SDS011;3087;48.392;10.836;2023-02-11T12:38:48;11.30;;;8.73;;
6113;SDS011;3087;48.392;10.836;2023-02-11T12:44:06;11.77;;;9.40;;
6113;SDS011;3087;48.392;10.836;2023-02-11T12:47:25;9.98;;;8.98;;
6113;SDS011;3087;48.392;10.836;2023-02-11T12:54:48;9.80;;;8.23;;
6113;SDS011;3087;48.392;10.836;2023-02-11T12:57:43;9.35;;;8.02;;
6113;SDS011;3087;48.392;10.836;2023-02-11T13:00:22;10.73;;;9.32;;
6113;SDS011;3087;48.392;10.836;2023-02-11T13:05:33;9.73;;;7.47;;
6113;SDS011;3087;48.392;10.836;2023-02-11T13:08:31;10.02;;;8.25;;
6113;SDS011;3087;48.392;10.836;2023-02-11T13:10:58;9.73;;;7.68;;
6113;SDS011;3087;48.392;10.836;2023-02-11T13:13:32;10.77;;;7.97;;
6113;SDS011;3087;48.392;10.836;2023-02-11T13:16:04;12.32;;;8.82;;
6113;SDS011;3087;48.392;10.836;2023-02-11T13:18:45;11.02;;;8.63;;
6113;SDS011;3087;48.392;10.836;2023-02-11T13:21:21;9.45;;;8.35;;
6113;SDS011;3087;48.392;10.836;2023-02-11T13:25:01;11.25;;;8.65;;
6113;SDS011;3087;48.392;10.836;2023-02-11T13:29:39;10.00;;;8.73;;
6113;SDS011;3087;48.392;10.836;2023-02-11T13:32:23;11.70;;;8.73;;
6113;SDS011;3087;48.392;10.836;2023-02-11T13:37:34;12.45;;;9.30;;
6113;SDS011;3087;48.392;10.836;2023-02-11T13:40:05;10.85;;;8.80;;
6113;SDS011;3087;48.392;10.836;2023-02-11T13:42:53;13.75;;;9.27;;
6113;SDS011;3087;48.392;10.836;2023-02-11T13:45:28;12.80;;;9.23;;
6113;SDS011;3087;48.392;10.836;2023-02-11T13:48:14;11.75;;;9.63;;
6113;SDS011;3087;48.392;10.836;2023-02-11T13:50:59;12.63;;;9.32;;
6113;SDS011;3087;48.392;10.836;2023-02-11T13:53:29;17.10;;;11.55;;
6113;SDS011;3087;48.392;10.836;2023-02-11T13:56:09;11.75;;;10.35;;
6113;SDS011;3087;48.392;10.836;2023-02-11T13:58:48;14.75;;;9.50;;
6113;SDS011;3087;48.392;10.836;2023-02-11T14:04:19;17.50;;;12.50;;
6113;SDS011;3087;48.392;10.836;2023-02-11T14:15:44;13.13;;;10.10;;
6113;SDS011;3087;48.392;10.836;2023-02-11T14:23:37;14.05;;;10.23;;
6113;SDS011;3087;48.392;10.836;2023-02-11T14:28:35;14.57;;;9.85;;
6113;SDS011;3087;48.392;10.836;2023-02-11T14:31:06;12.65;;;10.00;;
6113;SDS011;3087;48.392;10.836;2023-02-11T14:36:12;12.82;;;10.40;;
6113;SDS011;3087;48.392;10.836;2023-02-11T14:41:58;19.05;;;10.38;;
6113;SDS011;3087;48.392;10.836;2023-02-11T14:44:27;13.68;;;10.10;;
6113;SDS011;3087;48.392;10.836;2023-02-11T14:46:55;12.35;;;10.50;;
6113;SDS011;3087;48.392;10.836;2023-02-11T14:49:26;19.00;;;11.88;;
6113;SDS011;3087;48.392;10.836;2023-02-11T14:51:56;14.43;;;11.18;;
6113;SDS011;3087;48.392;10.836;2023-02-11T14:54:26;12.65;;;10.50;;
6113;SDS011;3087;48.392;10.836;2023-02-11T14:57:06;14.05;;;10.13;;
6113;SDS011;3087;48.392;10.836;2023-02-11T14:59:59;13.15;;;10.45;;
6113;SDS011;3087;48.392;10.836;2023-02-11T15:02:28;16.75;;;12.93;;
6113;SDS011;3087;48.392;10.836;2023-02-11T15:07:46;13.73;;;9.98;;
6113;SDS011;3087;48.392;10.836;2023-02-11T15:10:21;13.52;;;10.13;;
6113;SDS011;3087;48.392;10.836;2023-02-11T15:12:52;16.10;;;10.60;;
6113;SDS011;3087;48.392;10.836;2023-02-11T15:15:18;17.90;;;10.65;;
6113;SDS011;3087;48.392;10.836;2023-02-11T15:17:44;13.63;;;11.23;;
6113;SDS011;3087;48.392;10.836;2023-02-11T15:23:07;17.50;;;11.90;;
6113;SDS011;3087;48.392;10.836;2023-02-11T15:25:42;20.65;;;12.40;;
6113;SDS011;3087;48.392;10.836;2023-02-11T15:28:14;15.50;;;10.80;;
6113;SDS011;3087;48.392;10.836;2023-02-11T15:30:46;15.55;;;11.10;;
6113;SDS011;3087;48.392;10.836;2023-02-11T15:33:21;15.10;;;10.80;;
6113;SDS011;3087;48.392;10.836;2023-02-11T15:35:49;14.73;;;10.77;;
6113;SDS011;3087;48.392;10.836;2023-02-11T15:38:15;15.38;;;10.82;;
6113;SDS011;3087;48.392;10.836;2023-02-11T15:40:49;15.75;;;10.48;;
6113;SDS011;3087;48.392;10.836;2023-02-11T15:43:21;17.63;;;10.98;;
6113;SDS011;3087;48.392;10.836;2023-02-11T15:48:20;16.55;;;10.93;;
6113;SDS011;3087;48.392;10.836;2023-02-11T15:50:53;16.55;;;9.70;;
6113;SDS011;3087;48.392;10.836;2023-02-11T15:56:09;12.95;;;9.10;;
6113;SDS011;3087;48.392;10.836;2023-02-11T15:58:41;13.60;;;9.75;;
6113;SDS011;3087;48.392;10.836;2023-02-11T16:01:09;13.95;;;10.05;;
6113;SDS011;3087;48.392;10.836;2023-02-11T16:03:36;15.52;;;10.15;;
6113;SDS011;3087;48.392;10.836;2023-02-11T16:06:16;12.90;;;9.88;;
6113;SDS011;3087;48.392;10.836;2023-02-11T16:08:57;17.17;;;10.50;;
6113;SDS011;3087;48.392;10.836;2023-02-11T16:17:08;20.40;;;11.60;;
6113;SDS011;3087;48.392;10.836;2023-02-11T16:19:41;15.93;;;11.10;;
6113;SDS011;3087;48.392;10.836;2023-02-11T16:22:10;16.33;;;10.83;;
6113;SDS011;3087;48.392;10.836;2023-02-11T16:24:54;19.57;;;13.53;;
6113;SDS011;3087;48.392;10.836;2023-02-11T16:27:23;28.30;;;19.73;;
6113;SDS011;3087;48.392;10.836;2023-02-11T16:29:53;32.87;;;22.63;;
6113;SDS011;3087;48.392;10.836;2023-02-11T16:32:21;30.53;;;20.80;;
6113;SDS011;3087;48.392;10.836;2023-02-11T16:34:49;15.53;;;12.50;;
6113;SDS011;3087;48.392;10.836;2023-02-11T16:37:15;18.73;;;12.73;;
6113;SDS011;3087;48.392;10.836;2023-02-11T16:39:41;13.97;;;10.77;;
6113;SDS011;3087;48.392;10.836;2023-02-11T16:42:06;13.80;;;9.67;;
6113;SDS011;3087;48.392;10.836;2023-02-11T16:44:32;14.32;;;10.15;;
6113;SDS011;3087;48.392;10.836;2023-02-11T16:46:59;13.30;;;10.23;;
6113;SDS011;3087;48.392;10.836;2023-02-11T16:49:30;12.63;;;10.13;;
6113;SDS011;3087;48.392;10.836;2023-02-11T16:51:59;13.17;;;10.90;;
6113;SDS011;3087;48.392;10.836;2023-02-11T16:54:29;15.33;;;11.73;;
6113;SDS011;3087;48.392;10.836;2023-02-11T16:56:55;18.53;;;12.13;;
6113;SDS011;3087;48.392;10.836;2023-02-11T16:59:21;16.70;;;11.83;;
6113;SDS011;3087;48.392;10.836;2023-02-11T17:01:47;17.83;;;13.57;;
6113;SDS011;3087;48.392;10.836;2023-02-11T17:04:18;15.30;;;12.53;;
6113;SDS011;3087;48.392;10.836;2023-02-11T17:06:45;16.10;;;11.70;;
6113;SDS011;3087;48.392;10.836;2023-02-11T17:09:25;16.23;;;12.67;;
6113;SDS011;3087;48.392;10.836;2023-02-11T17:11:51;16.60;;;11.67;;
6113;SDS011;3087;48.392;10.836;2023-02-11T17:14:18;16.37;;;11.63;;
6113;SDS011;3087;48.392;10.836;2023-02-11T17:16:44;14.70;;;12.07;;
6113;SDS011;3087;48.392;10.836;2023-02-11T17:19:12;17.90;;;13.40;;
6113;SDS011;3087;48.392;10.836;2023-02-11T17:21:42;15.57;;;11.83;;
6113;SDS011;3087;48.392;10.836;2023-02-11T17:24:09;15.83;;;11.07;;
6113;SDS011;3087;48.392;10.836;2023-02-11T17:26:36;15.53;;;12.07;;
6113;SDS011;3087;48.392;10.836;2023-02-11T17:29:09;19.07;;;12.80;;
6113;SDS011;3087;48.392;10.836;2023-02-11T17:31:37;17.97;;;12.20;;
6113;SDS011;3087;48.392;10.836;2023-02-11T17:34:03;19.37;;;13.40;;